createdAt,value
2022-08-26T00:01:54.122Z,101483.72
2022-08-26T00:04:23.606Z,101480.19
2022-08-26T00:06:50.840Z,101482.59
2022-08-26T00:09:17.831Z,101484.56
2022-08-26T00:11:45.567Z,101484.50
2022-08-26T00:14:14.088Z,101492.09
2022-08-26T00:16:47.120Z,101497.78
2022-08-26T00:19:20.794Z,101497.38
2022-08-26T00:21:49.679Z,101498.56
2022-08-26T00:24:18.065Z,101490.44
2022-08-26T00:26:45.457Z,101492.91
2022-08-26T00:29:13.978Z,101491.25
2022-08-26T00:31:42.019Z,101487.63
2022-08-26T00:34:11.279Z,101488.88
2022-08-26T00:36:40.715Z,101494.09
2022-08-26T00:39:08.974Z,101498.22
2022-08-26T00:41:39.135Z,101497.03
2022-08-26T00:44:07.225Z,101504.78
2022-08-26T00:46:39.842Z,101505.13
2022-08-26T00:49:23.524Z,101511.94
2022-08-26T00:51:54.470Z,101502.41
2022-08-26T00:54:27.459Z,101502.50
2022-08-26T00:57:00.214Z,101506.47
2022-08-26T00:59:29.233Z,101508.88
2022-08-26T01:02:00.688Z,101499.97
2022-08-26T01:04:33.288Z,101502.41
2022-08-26T01:07:00.302Z,101486.75
2022-08-26T01:09:28.385Z,101494.81
2022-08-26T01:11:59.133Z,101493.22
2022-08-26T01:14:30.591Z,101498.84
2022-08-26T01:16:57.779Z,101501.34
2022-08-26T01:19:30.748Z,101507.00
2022-08-26T01:22:42.110Z,101518.66
2022-08-26T01:25:11.640Z,101523.91
2022-08-26T01:27:38.921Z,101515.06
2022-08-26T01:30:06.854Z,101517.44
2022-08-26T01:32:34.970Z,101512.19
2022-08-26T01:35:02.456Z,101515.47
2022-08-26T01:37:35.152Z,101526.03
2022-08-26T01:40:02.829Z,101517.31
2022-08-26T01:42:30.056Z,101516.97
2022-08-26T01:45:07.321Z,101522.69
2022-08-26T01:47:37.141Z,101518.28
2022-08-26T01:50:27.855Z,101512.34
2022-08-26T01:53:00.591Z,101511.97
2022-08-26T01:55:32.983Z,101514.00
2022-08-26T01:58:07.832Z,101512.81
2022-08-26T02:00:36.200Z,101520.06
2022-08-26T02:03:17.920Z,101510.41
2022-08-26T02:05:52.846Z,101509.66
2022-08-26T02:10:54.785Z,101507.72
2022-08-26T02:13:25.430Z,101498.06
2022-08-26T02:15:53.283Z,101493.25
2022-08-26T02:18:20.547Z,101505.25
2022-08-26T02:20:47.377Z,101510.06
2022-08-26T02:23:18.684Z,101517.97
2022-08-26T02:26:14.388Z,101518.72
2022-08-26T02:28:55.385Z,101517.13
2022-08-26T02:31:22.966Z,101521.94
2022-08-26T02:33:50.194Z,101523.09
2022-08-26T02:36:28.666Z,101525.03
2022-08-26T02:38:55.875Z,101523.03
2022-08-26T02:41:23.501Z,101527.03
2022-08-26T02:43:51.537Z,101527.44
2022-08-26T02:46:21.568Z,101531.41
2022-08-26T02:48:57.652Z,101536.59
2022-08-26T02:51:25.629Z,101540.19
2022-08-26T02:53:53.070Z,101530.13
2022-08-26T02:56:19.949Z,101532.97
2022-08-26T02:58:47.277Z,101538.22
2022-08-26T03:01:32.447Z,101539.44
2022-08-26T03:04:02.133Z,101532.25
2022-08-26T03:06:29.896Z,101527.00
2022-08-26T03:08:56.763Z,101529.00
2022-08-26T03:11:23.960Z,101522.97
2022-08-26T03:13:52.101Z,101530.59
2022-08-26T03:16:19.107Z,101525.84
2022-08-26T03:18:52.061Z,101523.03
2022-08-26T03:21:21.000Z,101519.84
2022-08-26T03:23:48.243Z,101522.25
2022-08-26T03:26:16.125Z,101519.03
2022-08-26T03:29:01.813Z,101512.63
2022-08-26T03:31:29.770Z,101504.25
2022-08-26T03:33:59.501Z,101519.41
2022-08-26T03:36:27.000Z,101515.03
2022-08-26T03:38:54.434Z,101520.22
2022-08-26T03:41:21.439Z,101519.41
2022-08-26T03:43:50.789Z,101528.28
2022-08-26T03:46:20.560Z,101523.50
2022-08-26T03:48:47.902Z,101511.88
2022-08-26T03:51:19.103Z,101515.44
2022-08-26T03:53:48.277Z,101510.63
2022-08-26T03:56:15.535Z,101518.25
2022-08-26T03:58:44.480Z,101514.28
2022-08-26T04:01:12.782Z,101505.47
2022-08-26T04:04:00.317Z,101512.31
2022-08-26T04:06:33.656Z,101517.91
2022-08-26T04:09:05.492Z,101523.09
2022-08-26T04:11:35.704Z,101517.13
2022-08-26T04:14:09.276Z,101513.84
2022-08-26T04:16:36.311Z,101511.41
2022-08-26T04:19:03.321Z,101500.59
2022-08-26T04:21:30.381Z,101500.59
2022-08-26T04:23:58.338Z,101489.78
2022-08-26T04:26:25.781Z,101486.63
2022-08-26T04:28:55.349Z,101496.25
2022-08-26T04:31:22.690Z,101497.91
2022-08-26T04:33:50.813Z,101492.34
2022-08-26T04:36:19.826Z,101492.81
2022-08-26T04:38:48.051Z,101492.03
2022-08-26T04:43:46.641Z,101511.69
2022-08-26T04:46:18.207Z,101502.00
2022-08-26T04:48:45.965Z,101513.63
2022-08-26T04:51:12.999Z,101494.81
2022-08-26T04:53:39.879Z,101509.66
2022-08-26T04:56:08.609Z,101520.44
2022-08-26T04:58:37.059Z,101499.19
2022-08-26T05:01:04.931Z,101509.22
2022-08-26T05:03:31.990Z,101507.97
2022-08-26T05:05:58.914Z,101510.34
2022-08-26T05:08:26.224Z,101509.22
2022-08-26T05:10:56.265Z,101528.41
2022-08-26T05:13:27.646Z,101519.56
2022-08-26T05:15:54.748Z,101529.16
2022-08-26T05:18:27.492Z,101531.91
2022-08-26T05:20:54.960Z,101532.66
2022-08-26T05:23:24.483Z,101539.50
2022-08-26T05:25:59.000Z,101555.13
2022-08-26T05:28:29.848Z,101562.34
2022-08-26T05:30:57.197Z,101565.19
2022-08-26T05:33:24.225Z,101575.22
2022-08-26T05:35:51.867Z,101577.22
2022-08-26T05:38:21.524Z,101583.28
2022-08-26T05:40:52.513Z,101582.06
2022-08-26T05:43:20.427Z,101569.03
2022-08-26T05:45:50.628Z,101559.28
2022-08-26T05:48:22.698Z,101540.69
2022-08-26T05:50:53.623Z,101544.38
2022-08-26T05:53:24.020Z,101530.41
2022-08-26T05:55:54.850Z,101524.00
2022-08-26T05:58:23.373Z,101530.00
2022-08-26T06:01:02.980Z,101528.81
2022-08-26T06:03:33.490Z,101528.81
2022-08-26T06:06:05.659Z,101525.16
2022-08-26T06:08:34.408Z,101531.84
2022-08-26T06:11:04.491Z,101541.06
2022-08-26T06:13:33.879Z,101537.41
2022-08-26T06:16:05.192Z,101543.03
2022-08-26T06:18:36.396Z,101549.06
2022-08-26T06:21:14.191Z,101554.69
2022-08-26T06:23:59.730Z,101553.88
2022-08-26T06:26:29.405Z,101571.09
2022-08-26T06:28:56.469Z,101585.13
2022-08-26T06:31:25.288Z,101585.53
2022-08-26T06:33:52.973Z,101589.16
2022-08-26T06:52:13.461Z,101612.13
2022-08-26T06:54:43.312Z,101611.69
2022-08-26T06:57:11.913Z,101606.88
2022-08-26T06:59:39.829Z,101616.69
2022-08-26T07:02:08.145Z,101607.88
2022-08-26T07:04:35.858Z,101623.72
2022-08-26T07:07:03.395Z,101620.81
2022-08-26T07:09:33.128Z,101626.88
2022-08-26T07:12:00.042Z,101618.28
2022-08-26T07:14:27.129Z,101626.16
2022-08-26T07:16:54.528Z,101630.22
2022-08-26T07:19:30.104Z,101621.78
2022-08-26T07:22:03.894Z,101627.34
2022-08-26T07:24:32.828Z,101636.66
2022-08-26T07:27:05.515Z,101630.72
2022-08-26T07:29:33.487Z,101630.31
2022-08-26T07:32:01.170Z,101645.19
2022-08-26T07:34:28.824Z,101638.72
2022-08-26T07:36:57.083Z,101635.56
2022-08-26T07:39:25.711Z,101641.06
2022-08-26T07:41:54.195Z,101649.16
2022-08-26T07:44:21.838Z,101643.91
2022-08-26T07:46:52.429Z,101645.88
2022-08-26T07:49:23.337Z,101647.13
2022-08-26T07:51:51.325Z,101650.63
2022-08-26T07:54:18.948Z,101640.91
2022-08-26T07:56:47.657Z,101651.41
2022-08-26T07:59:15.418Z,101654.44
2022-08-26T08:01:44.870Z,101655.78
2022-08-26T08:04:17.826Z,101659.00
2022-08-26T08:06:45.882Z,101652.53
2022-08-26T08:09:14.940Z,101668.69
2022-08-26T08:11:45.085Z,101669.47
2022-08-26T08:14:12.384Z,101665.69
2022-08-26T08:16:45.899Z,101658.63
2022-08-26T08:19:15.428Z,101666.78
2022-08-26T08:21:43.723Z,101662.16
2022-08-26T08:24:11.397Z,101669.84
2022-08-26T08:26:38.963Z,101679.03
2022-08-26T08:29:08.368Z,101679.13
2022-08-26T08:31:56.588Z,101681.72
2022-08-26T08:34:23.814Z,101686.44
2022-08-26T08:36:53.344Z,101678.72
2022-08-26T08:39:21.929Z,101687.69
2022-08-26T08:42:01.110Z,101678.88
2022-08-26T08:44:29.949Z,101688.06
2022-08-26T08:47:06.374Z,101688.97
2022-08-26T08:49:34.543Z,101689.34
2022-08-26T08:52:33.975Z,101686.22
2022-08-26T08:55:06.012Z,101690.75
2022-08-26T08:57:47.453Z,101688.16
2022-08-26T09:00:19.357Z,101693.50
2022-08-26T09:03:07.918Z,101691.09
2022-08-26T09:05:48.555Z,101695.19
2022-08-26T09:08:25.397Z,101683.66
2022-08-26T09:10:59.552Z,101688.91
2022-08-26T09:13:27.580Z,101689.69
2022-08-26T09:18:42.230Z,101696.16
2022-08-26T09:21:15.898Z,101684.16
2022-08-26T09:23:49.276Z,101685.38
2022-08-26T09:26:30.765Z,101689.06
2022-08-26T09:29:02.509Z,101696.72
2022-08-26T09:31:35.830Z,101693.69
2022-08-26T09:34:21.876Z,101698.97
2022-08-26T09:36:57.090Z,101696.50
2022-08-26T09:39:24.080Z,101699.59
2022-08-26T09:42:25.490Z,101703.28
2022-08-26T09:44:55.948Z,101704.00
2022-08-26T09:47:32.720Z,101705.59
2022-08-26T09:50:19.590Z,101712.38
2022-08-26T09:52:47.627Z,101706.88
2022-08-26T09:55:21.934Z,101710.03
2022-08-26T09:57:51.878Z,101720.50
2022-08-26T10:00:38.471Z,101704.78
2022-08-26T10:03:25.302Z,101714.75
2022-08-26T10:06:01.746Z,101713.19
2022-08-26T10:08:31.532Z,101713.88
2022-08-26T10:11:02.708Z,101707.09
2022-08-26T10:13:41.054Z,101714.69
2022-08-26T10:16:20.859Z,101710.56
2022-08-26T10:19:00.027Z,101713.72
2022-08-26T10:21:35.539Z,101712.03
2022-08-26T10:24:04.443Z,101715.94
2022-08-26T10:26:58.560Z,101718.94
2022-08-26T10:29:35.132Z,101720.38
2022-08-26T10:32:13.898Z,101721.53
2022-08-26T10:34:40.984Z,101720.13
2022-08-26T10:37:21.482Z,101726.94
2022-08-26T10:40:15.866Z,101723.06
2022-08-26T10:42:53.082Z,101725.94
2022-08-26T10:45:25.429Z,101717.22
2022-08-26T10:48:00.490Z,101726.88
2022-08-26T10:50:43.305Z,101727.84
2022-08-26T10:53:29.076Z,101733.31
2022-08-26T10:56:15.663Z,101738.47
2022-08-26T10:58:51.554Z,101719.94
2022-08-26T11:01:43.665Z,101731.63
2022-08-26T11:04:52.381Z,101728.19
2022-08-26T11:07:37.150Z,101741.44
2022-08-26T11:10:19.259Z,101730.59
2022-08-26T11:12:50.465Z,101742.06
2022-08-26T11:15:24.488Z,101730.00
2022-08-26T11:17:51.834Z,101734.25
2022-08-26T11:20:29.279Z,101730.19
2022-08-26T11:23:16.360Z,101734.84
2022-08-26T11:26:01.287Z,101734.78
2022-08-26T11:28:50.701Z,101734.75
2022-08-26T11:31:19.131Z,101736.69
2022-08-26T11:34:04.519Z,101747.03
2022-08-26T11:36:37.703Z,101740.19
2022-08-26T11:39:53.992Z,101741.59
2022-08-26T11:42:35.840Z,101736.13
2022-08-26T11:45:40.263Z,101735.31
2022-08-26T11:48:29.789Z,101732.78
2022-08-26T11:51:09.889Z,101738.75
2022-08-26T11:53:44.782Z,101737.53
2022-08-26T11:56:31.559Z,101735.72
2022-08-26T11:59:02.438Z,101738.50
2022-08-26T12:01:32.511Z,101740.38
2022-08-26T12:04:01.081Z,101735.81
2022-08-26T12:06:34.062Z,101734.56
2022-08-26T12:09:15.332Z,101745.81
2022-08-26T12:11:42.419Z,101740.66
2022-08-26T12:14:24.869Z,101732.19
2022-08-26T12:16:54.542Z,101734.00
2022-08-26T12:19:27.495Z,101732.03
2022-08-26T12:22:08.252Z,101732.72
2022-08-26T12:24:35.435Z,101733.94
2022-08-26T12:27:11.663Z,101741.31
2022-08-26T12:29:39.906Z,101742.00
2022-08-26T12:32:17.615Z,101744.19
2022-08-26T12:34:47.382Z,101749.88
2022-08-26T12:37:15.465Z,101755.91
2022-08-26T12:39:44.696Z,101771.75
2022-08-26T12:42:17.516Z,101758.22
2022-08-26T12:44:53.131Z,101768.59
2022-08-26T12:47:42.218Z,101759.84
2022-08-26T12:50:27.335Z,101764.63
2022-08-26T12:53:09.483Z,101764.56
2022-08-26T12:55:39.223Z,101768.56
2022-08-26T12:58:16.307Z,101776.41
2022-08-26T13:00:48.900Z,101776.09
2022-08-26T13:03:34.073Z,101773.34
2022-08-26T13:06:22.919Z,101774.63
2022-08-26T13:09:14.792Z,101777.38
2022-08-26T13:11:45.149Z,101771.03
2022-08-26T13:14:21.077Z,101772.66
2022-08-26T13:16:52.960Z,101760.72
2022-08-26T13:19:23.538Z,101759.16
2022-08-26T13:21:56.513Z,101759.59
2022-08-26T13:24:26.882Z,101750.34
2022-08-26T13:26:53.982Z,101741.09
2022-08-26T13:29:20.975Z,101745.06
2022-08-26T13:31:48.131Z,101740.22
2022-08-26T13:34:19.170Z,101740.00
2022-08-26T13:36:47.695Z,101740.81
2022-08-26T13:39:14.895Z,101734.94
2022-08-26T13:41:43.436Z,101732.16
2022-08-26T13:44:10.677Z,101724.94
2022-08-26T13:46:38.331Z,101719.59
2022-08-26T13:49:05.891Z,101724.88
2022-08-26T13:51:33.321Z,101712.25
2022-08-26T13:54:00.684Z,101707.81
2022-08-26T13:56:29.981Z,101706.44
2022-08-26T13:58:58.355Z,101715.53
2022-08-26T14:01:27.041Z,101715.03
2022-08-26T14:03:54.247Z,101721.66
2022-08-26T14:06:21.270Z,101724.56
2022-08-26T14:08:48.470Z,101721.25
2022-08-26T14:11:15.981Z,101716.41
2022-08-26T14:13:43.030Z,101714.47
2022-08-26T14:16:33.553Z,101716.28
2022-08-26T14:19:01.971Z,101716.41
2022-08-26T14:21:35.709Z,101718.78
2022-08-26T14:24:04.494Z,101712.47
2022-08-26T14:26:31.675Z,101721.94
2022-08-26T14:28:59.899Z,101715.84
2022-08-26T14:31:29.255Z,101715.72
2022-08-26T14:34:02.982Z,101708.84
2022-08-26T14:36:32.270Z,101713.03
2022-08-26T14:39:07.896Z,101719.81
2022-08-26T14:41:42.123Z,101727.53
2022-08-26T14:44:13.921Z,101723.13
2022-08-26T14:46:49.587Z,101728.78
2022-08-26T14:49:18.913Z,101732.69
2022-08-26T14:51:46.307Z,101721.63
2022-08-26T14:54:17.981Z,101740.16
2022-08-26T14:57:13.188Z,101738.53
2022-08-26T14:59:43.360Z,101730.38
2022-08-26T15:02:22.279Z,101733.25
2022-08-26T15:04:59.836Z,101732.34
2022-08-26T15:07:27.181Z,101730.50
2022-08-26T15:09:54.037Z,101732.00
2022-08-26T15:12:21.257Z,101727.72
2022-08-26T15:14:48.468Z,101740.94
2022-08-26T15:17:15.332Z,101732.69
2022-08-26T15:19:42.161Z,101727.91
2022-08-26T15:22:09.253Z,101730.84
2022-08-26T15:24:36.739Z,101731.81
2022-08-26T15:27:03.685Z,101719.94
2022-08-26T15:29:30.853Z,101721.94
2022-08-26T15:32:01.466Z,101720.34
2022-08-26T15:34:28.383Z,101722.31
2022-08-26T15:36:55.516Z,101717.47
2022-08-26T15:39:22.371Z,101724.94
2022-08-26T15:41:49.351Z,101728.91
2022-08-26T15:44:17.652Z,101731.09
2022-08-26T15:46:44.667Z,101733.50
2022-08-26T15:49:17.537Z,101728.28
2022-08-26T15:51:48.023Z,101728.41
2022-08-26T15:54:16.945Z,101733.75
2022-08-26T15:56:44.203Z,101735.06
2022-08-26T15:59:12.126Z,101727.47
2022-08-26T16:01:39.812Z,101733.09
2022-08-26T16:04:07.893Z,101729.91
2022-08-26T16:06:37.643Z,101722.78
2022-08-26T16:09:06.549Z,101726.78
2022-08-26T16:11:36.004Z,101732.75
2022-08-26T16:14:04.824Z,101735.91
2022-08-26T16:16:32.298Z,101739.91
2022-08-26T16:18:59.902Z,101738.72
2022-08-26T16:21:28.775Z,101741.13
2022-08-26T16:23:57.094Z,101739.16
2022-08-26T16:26:29.001Z,101735.91
2022-08-26T16:28:56.037Z,101734.72
2022-08-26T16:31:23.044Z,101732.34
2022-08-26T16:33:50.075Z,101733.94
2022-08-26T16:36:17.605Z,101740.34
2022-08-26T16:38:50.283Z,101735.91
2022-08-26T16:41:17.746Z,101744.69
2022-08-26T16:43:44.908Z,101729.88
2022-08-26T16:46:14.307Z,101731.47
2022-08-26T16:48:42.173Z,101719.06
2022-08-26T16:51:13.975Z,101724.56
2022-08-26T16:53:40.972Z,101731.00
2022-08-26T16:56:16.031Z,101723.84
2022-08-26T16:58:43.544Z,101723.06
2022-08-26T17:01:10.858Z,101725.13
2022-08-26T17:03:38.294Z,101734.31
2022-08-26T17:06:05.742Z,101740.69
2022-08-26T17:08:32.757Z,101736.47
2022-08-26T17:11:00.764Z,101739.63
2022-08-26T17:13:34.918Z,101744.53
2022-08-26T17:16:05.458Z,101750.63
2022-08-26T17:18:33.548Z,101752.63
2022-08-26T17:21:08.273Z,101749.13
2022-08-26T17:23:36.478Z,101754.06
2022-08-26T17:26:04.272Z,101766.47
2022-08-26T17:28:32.207Z,101766.09
2022-08-26T17:31:00.208Z,101768.91
2022-08-26T17:33:28.143Z,101762.13
2022-08-26T17:35:55.549Z,101757.75
2022-08-26T17:38:23.327Z,101757.78
2022-08-26T17:40:50.776Z,101765.00
2022-08-26T17:43:19.059Z,101762.63
2022-08-26T17:45:46.119Z,101759.41
2022-08-26T17:48:13.548Z,101773.84
2022-08-26T17:50:42.320Z,101771.41
2022-08-26T17:53:17.841Z,101771.41
2022-08-26T17:55:48.049Z,101782.22
2022-08-26T17:58:17.496Z,101779.44
2022-08-26T18:00:49.077Z,101769.03
2022-08-26T18:03:16.424Z,101775.03
2022-08-26T18:05:48.228Z,101779.84
2022-08-26T18:08:15.852Z,101776.66
2022-08-26T18:10:44.045Z,101775.84
2022-08-26T18:13:11.693Z,101773.06
2022-08-26T18:15:40.031Z,101777.03
2022-08-26T18:18:07.761Z,101781.44
2022-08-26T18:20:35.280Z,101786.63
2022-08-26T18:23:02.147Z,101783.88
2022-08-26T18:25:29.163Z,101781.06
2022-08-26T18:27:56.040Z,101787.84
2022-08-26T18:30:23.376Z,101780.25
2022-08-26T18:32:51.815Z,101783.44
2022-08-26T18:35:19.784Z,101791.47
2022-08-26T18:37:46.818Z,101789.44
2022-08-26T18:40:14.731Z,101785.44
2022-08-26T18:42:41.961Z,101797.03
2022-08-26T18:45:09.850Z,101798.22
2022-08-26T18:47:43.371Z,101798.63
2022-08-26T18:50:11.230Z,101793.44
2022-08-26T18:52:38.180Z,101807.81
2022-08-26T18:55:06.030Z,101800.25
2022-08-26T18:57:33.465Z,101804.63
2022-08-26T19:00:00.295Z,101797.81
2022-08-26T19:02:27.341Z,101791.41
2022-08-26T19:04:57.658Z,101797.34
2022-08-26T19:07:24.603Z,101794.13
2022-08-26T19:09:54.109Z,101800.13
2022-08-26T19:12:21.415Z,101795.72
2022-08-26T19:14:48.429Z,101794.53
2022-08-26T19:17:15.469Z,101794.50
2022-08-26T19:19:42.502Z,101800.47
2022-08-26T19:22:11.269Z,101794.06
2022-08-26T19:24:38.271Z,101801.59
2022-08-26T19:27:05.524Z,101804.34
2022-08-26T19:29:35.237Z,101798.31
2022-08-26T19:32:03.629Z,101803.47
2022-08-26T19:34:30.787Z,101795.47
2022-08-26T19:36:58.476Z,101799.47
2022-08-26T19:39:26.916Z,101804.22
2022-08-26T19:41:53.955Z,101801.81
2022-08-26T19:44:41.635Z,101809.34
2022-08-26T19:47:10.136Z,101807.69
2022-08-26T19:49:37.672Z,101797.28
2022-08-26T19:52:05.687Z,101802.09
2022-08-26T19:54:32.869Z,101805.28
2022-08-26T19:56:59.735Z,101802.88
2022-08-26T19:59:26.810Z,101810.03
2022-08-26T20:02:01.140Z,101804.88
2022-08-26T20:04:30.569Z,101798.06
2022-08-26T20:07:00.303Z,101803.28
2022-08-26T20:09:31.900Z,101805.63
2022-08-26T20:11:59.101Z,101812.78
2022-08-26T20:14:27.579Z,101815.91
2022-08-26T20:16:54.708Z,101812.31
2022-08-26T20:19:40.515Z,101806.25
2022-08-26T20:22:07.903Z,101804.97
2022-08-26T20:24:35.599Z,101807.00
2022-08-26T20:27:07.750Z,101806.22
2022-08-26T20:29:36.821Z,101799.81
2022-08-26T20:32:06.179Z,101808.09
2022-08-26T20:34:34.743Z,101798.44
2022-08-26T20:37:02.385Z,101803.13
2022-08-26T20:39:29.901Z,101798.25
2022-08-26T20:41:57.972Z,101805.25
2022-08-26T20:44:25.715Z,101795.16
2022-08-26T20:46:52.621Z,101795.94
2022-08-26T20:49:19.633Z,101793.91
2022-08-26T20:51:51.673Z,101795.38
2022-08-26T20:54:25.034Z,101794.06
2022-08-26T20:56:56.423Z,101787.56
2022-08-26T20:59:23.361Z,101786.31
2022-08-26T21:01:50.573Z,101769.53
2022-08-26T21:04:21.884Z,101769.47
2022-08-26T21:06:52.247Z,101769.38
2022-08-26T21:09:25.402Z,101770.47
2022-08-26T21:11:54.707Z,101770.06
2022-08-26T21:14:25.798Z,101777.97
2022-08-26T21:16:53.540Z,101779.97
2022-08-26T21:19:20.434Z,101774.03
2022-08-26T21:21:48.684Z,101776.44
2022-08-26T21:24:16.608Z,101771.66
2022-08-26T21:26:43.656Z,101766.06
2022-08-26T21:29:10.785Z,101770.78
2022-08-26T21:31:42.191Z,101771.19
2022-08-26T21:34:11.958Z,101776.00
2022-08-26T21:36:38.950Z,101774.44
2022-08-26T21:39:11.301Z,101778.09
2022-08-26T21:41:39.545Z,101783.25
2022-08-26T21:44:06.784Z,101776.06
2022-08-26T21:46:37.457Z,101783.72
2022-08-26T21:49:08.022Z,101782.53
2022-08-26T21:51:38.648Z,101782.09
2022-08-26T21:54:10.820Z,101786.06
2022-08-26T21:56:41.556Z,101797.47
2022-08-26T21:59:09.268Z,101793.66
2022-08-26T22:01:37.786Z,101797.13
2022-08-26T22:04:07.208Z,101796.47
2022-08-26T22:06:39.151Z,101792.41
2022-08-26T22:09:05.994Z,101788.59
2022-08-26T22:11:32.898Z,101803.31
2022-08-26T22:13:59.894Z,101799.22
2022-08-26T22:16:28.617Z,101803.13
2022-08-26T22:18:55.661Z,101803.00
2022-08-26T22:21:25.291Z,101796.94
2022-08-26T22:23:52.583Z,101797.25
2022-08-26T22:26:28.755Z,101805.19
2022-08-26T22:28:58.609Z,101800.28
2022-08-26T22:31:37.121Z,101791.31
2022-08-26T22:34:10.941Z,101800.81
2022-08-26T22:36:44.418Z,101797.53
2022-08-26T22:39:17.567Z,101794.63
2022-08-26T22:41:45.294Z,101788.19
2022-08-26T22:44:12.526Z,101789.72
2022-08-26T22:46:42.755Z,101796.81
2022-08-26T22:49:12.599Z,101792.09
2022-08-26T22:51:39.444Z,101796.03
2022-08-26T22:54:06.635Z,101796.81
2022-08-26T22:56:33.945Z,101796.38
2022-08-26T22:59:00.727Z,101784.47
2022-08-26T23:01:27.931Z,101783.28
2022-08-26T23:03:54.885Z,101790.16
2022-08-26T23:06:21.852Z,101782.13
2022-08-26T23:08:49.411Z,101785.13
2022-08-26T23:11:16.444Z,101788.66
2022-08-26T23:13:43.579Z,101795.38
2022-08-26T23:16:12.430Z,101790.19
2022-08-26T23:18:41.082Z,101786.09
2022-08-26T23:21:09.044Z,101784.41
2022-08-26T23:23:36.512Z,101790.78
2022-08-26T23:26:06.318Z,101789.63
2022-08-26T23:28:35.109Z,101787.13
2022-08-26T23:31:01.963Z,101791.00
2022-08-26T23:33:49.062Z,101786.19
2022-08-26T23:36:17.971Z,101780.63
2022-08-26T23:38:47.678Z,101784.94
2022-08-26T23:41:23.014Z,101788.06
2022-08-26T23:43:50.453Z,101784.88
2022-08-26T23:46:18.266Z,101775.66
2022-08-26T23:48:45.439Z,101780.41
2022-08-26T23:51:31.350Z,101780.78
2022-08-26T23:53:58.201Z,101773.91
2022-08-26T23:56:26.652Z,101770.69
2022-08-26T23:58:54.385Z,101773.09
